This is the latest recevied weather packets stored in our database for station/object GW1496. If no packets are shown the sender has not sent any weather packets the latest 10 day(s).
| Time | Temp. | Humidity | Pressure | Rain* | Wind** | Luminosity | Snow |
|---|---|---|---|---|---|---|---|
| 1778040229 | 16.11° C | 75% | 1001 hPa | 0 mm | - | - | - |
| 1778038035 | 16.11° C | 69% | 1001 hPa | 0 mm | - | - | - |
| 1778037350 | 16.11° C | 68% | 1001 hPa | 0 mm | - | - | - |
| 1778036267 | 16.11° C | 69% | 1001 hPa | 0 mm | - | - | - |
| 1778035889 | 16.11° C | 67% | 1001 hPa | 0 mm | - | - | - |
| 1778032311 | 17.78° C | 64% | 1002 hPa | 0 mm | - | - | - |
| 1778024727 | 21.11° C | 47% | 1001 hPa | 0 mm | - | - | - |
| 1778019674 | 25.56° C | 28% | 1001 hPa | 0 mm | - | - | - |
| 1778018261 | 25° C | 29% | 1001 hPa | 0 mm | - | - | - |
| 1778017909 | 25° C | 29% | 1001 hPa | 0 mm | - | - | - |
| 1778017181 | 25° C | 30% | 1001 hPa | 0 mm | - | - | - |
| 1778016462 | 25° C | 29% | 1002 hPa | 0 mm | - | - | - |
| 1778011780 | 25° C | 29% | 1002 hPa | 0 mm | - | - | - |
| 1778008172 | 25.56° C | 29% | 1003 hPa | 0 mm | - | - | - |
| 1778007816 | 25.56° C | 29% | 1003 hPa | 0 mm | - | - | - |
| 1778003485 | 23.89° C | 32% | 1004 hPa | 0 mm | - | - | - |
| 1778003125 | 23.89° C | 31% | 1004 hPa | 0 mm | - | - | - |
| 1778000979 | 23.33° C | 34% | 1004 hPa | 0 mm | - | - | - |
| 1778000609 | 23.33° C | 33% | 1004 hPa | 0 mm | - | - | - |
| 1777999512 | 23.33° C | 33% | 1005 hPa | 0 mm | - | - | - |
| 1777998439 | 22.78° C | 33% | 1005 hPa | 0 mm | - | - | - |
| 1777998108 | 22.78° C | 35% | 1005 hPa | 0 mm | - | - | - |
| 1777997735 | 22.78° C | 35% | 1005 hPa | 0 mm | - | - | - |
| 1777993411 | 21.67° C | 37% | 1005 hPa | 0 mm | - | - | - |
| 1777992708 | 21.67° C | 40% | 1005 hPa | 0 mm | - | - | - |
* Rain since midnight (hover to see other rain measurements)
** Current wind speed in m/s (hover to see current wind gust speed)